Terminal Aerodrome Forecast
Issued by NWS

Home | Current Version | Previous Version | Text Only | Print | Product List | Glossary On
Versions: 1 2 3 4 5 6 7 8 9 10 11 12 13 14 15 16 17 18 19 20 21 22 23 24 25 26 27
000
FTUS45 KBYZ 290520
TAFLVM
TAF
KLVM 290520Z 2906/3006 VRB05KT P6SM VCSH FEW070 SCT100 BKN200
     FM291700 08011KT P6SM VCTS SCT080CB BKN150
     FM292300 08015KT P6SM FEW100=

USA.gov is the U.S. government's official web portal to all federal, state and local government web resources and services.